Terminal Aerodrome Forecast
Issued by NWS Raleigh/Durham, NC

Home | Current Version | Previous Version | Text Only | Print | Product List | Glossary On
Versions: 1 2 3 4 5 6 7 8 9 10 11 12 13 14 15 16 17 18 19 20 21 22 23 24 25 26 27 28 29
000
FTUS42 KRAH 312336
TAFRDU
TAF
KRDU 312336Z 0100/0124 06006KT P6SM SCT040 SCT120 BKN250
      TEMPO 0100/0103 10009KT
     FM010900 VRB03KT 5SM BR BKN012
      TEMPO 0109/0112 2SM BR BKN005
     FM011500 06008KT P6SM SCT035 BKN050 PROB30 0116/0122 VRB15G25KT
      2SM TSRA BKN025CB OVC035=

USA.gov is the U.S. government's official web portal to all federal, state and local government web resources and services.